sensor_id;sensor_type;location;lat;lon;timestamp;temperature;humidity
26599;DHT22;14240;51.064;16.612;2023-07-09T00:00:46;20.60;92.10
26599;DHT22;14240;51.064;16.612;2023-07-09T00:03:16;20.60;92.10
26599;DHT22;14240;51.064;16.612;2023-07-09T00:05:42;20.60;92.10
26599;DHT22;14240;51.064;16.612;2023-07-09T00:08:31;20.50;92.10
26599;DHT22;14240;51.064;16.612;2023-07-09T00:10:57;20.20;92.00
26599;DHT22;14240;51.064;16.612;2023-07-09T00:13:24;20.50;92.20
26599;DHT22;14240;51.064;16.612;2023-07-09T00:15:51;20.50;92.30
26599;DHT22;14240;51.064;16.612;2023-07-09T00:18:16;20.40;92.40
26599;DHT22;14240;51.064;16.612;2023-07-09T00:20:42;20.40;92.50
26599;DHT22;14240;51.064;16.612;2023-07-09T00:23:13;20.40;92.70
26599;DHT22;14240;51.064;16.612;2023-07-09T00:25:43;20.30;92.70
26599;DHT22;14240;51.064;16.612;2023-07-09T00:28:14;20.30;92.80
26599;DHT22;14240;51.064;16.612;2023-07-09T00:30:40;20.30;92.90
26599;DHT22;14240;51.064;16.612;2023-07-09T00:33:10;20.20;92.90
26599;DHT22;14240;51.064;16.612;2023-07-09T00:35:36;20.20;93.00
26599;DHT22;14240;51.064;16.612;2023-07-09T00:38:02;20.20;93.10
26599;DHT22;14240;51.064;16.612;2023-07-09T00:40:27;20.20;93.20
26599;DHT22;14240;51.064;16.612;2023-07-09T00:42:54;20.10;93.20
26599;DHT22;14240;51.064;16.612;2023-07-09T00:45:25;20.10;93.30
26599;DHT22;14240;51.064;16.612;2023-07-09T00:47:54;20.00;93.30
26599;DHT22;14240;51.064;16.612;2023-07-09T00:52:58;20.00;93.40
26599;DHT22;14240;51.064;16.612;2023-07-09T00:55:30;19.90;93.60
26599;DHT22;14240;51.064;16.612;2023-07-09T00:58:02;19.90;93.70
26599;DHT22;14240;51.064;16.612;2023-07-09T01:00:36;19.80;93.80
26599;DHT22;14240;51.064;16.612;2023-07-09T01:03:36;19.70;94.00
26599;DHT22;14240;51.064;16.612;2023-07-09T01:06:00;19.60;94.10
26599;DHT22;14240;51.064;16.612;2023-07-09T01:08:29;19.60;94.30
26599;DHT22;14240;51.064;16.612;2023-07-09T01:10:57;19.50;94.50
26599;DHT22;14240;51.064;16.612;2023-07-09T01:13:24;19.50;94.60
26599;DHT22;14240;51.064;16.612;2023-07-09T01:15:52;19.40;94.70
26599;DHT22;14240;51.064;16.612;2023-07-09T01:18:18;19.40;94.90
26599;DHT22;14240;51.064;16.612;2023-07-09T01:20:44;19.30;95.00
26599;DHT22;14240;51.064;16.612;2023-07-09T01:23:10;19.20;95.20
26599;DHT22;14240;51.064;16.612;2023-07-09T01:25:41;19.20;95.30
26599;DHT22;14240;51.064;16.612;2023-07-09T01:28:08;19.10;95.50
26599;DHT22;14240;51.064;16.612;2023-07-09T01:30:39;19.10;95.60
26599;DHT22;14240;51.064;16.612;2023-07-09T01:33:05;19.10;95.90
26599;DHT22;14240;51.064;16.612;2023-07-09T01:35:35;19.10;95.80
26599;DHT22;14240;51.064;16.612;2023-07-09T01:38:02;19.10;95.80
26599;DHT22;14240;51.064;16.612;2023-07-09T01:40:29;19.00;96.00
26599;DHT22;14240;51.064;16.612;2023-07-09T01:42:55;19.00;96.20
26599;DHT22;14240;51.064;16.612;2023-07-09T01:45:23;19.10;96.30
26599;DHT22;14240;51.064;16.612;2023-07-09T01:47:49;19.00;96.20
26599;DHT22;14240;51.064;16.612;2023-07-09T01:50:15;19.00;96.30
26599;DHT22;14240;51.064;16.612;2023-07-09T01:52:43;18.90;96.30
26599;DHT22;14240;51.064;16.612;2023-07-09T01:55:11;18.90;96.40
26599;DHT22;14240;51.064;16.612;2023-07-09T01:57:37;18.90;96.40
26599;DHT22;14240;51.064;16.612;2023-07-09T02:00:07;18.80;96.40
26599;DHT22;14240;51.064;16.612;2023-07-09T02:02:37;18.80;96.40
26599;DHT22;14240;51.064;16.612;2023-07-09T02:05:04;18.90;96.40
26599;DHT22;14240;51.064;16.612;2023-07-09T02:07:30;18.80;96.10
26599;DHT22;14240;51.064;16.612;2023-07-09T02:09:56;18.70;96.30
26599;DHT22;14240;51.064;16.612;2023-07-09T02:12:22;18.80;96.40
26599;DHT22;14240;51.064;16.612;2023-07-09T02:14:48;18.80;96.40
26599;DHT22;14240;51.064;16.612;2023-07-09T02:17:15;18.70;96.50
26599;DHT22;14240;51.064;16.612;2023-07-09T02:19:41;18.80;96.60
26599;DHT22;14240;51.064;16.612;2023-07-09T02:22:07;18.80;96.60
26599;DHT22;14240;51.064;16.612;2023-07-09T02:24:33;18.80;96.60
26599;DHT22;14240;51.064;16.612;2023-07-09T02:27:00;18.70;96.70
26599;DHT22;14240;51.064;16.612;2023-07-09T02:29:27;18.70;96.80
26599;DHT22;14240;51.064;16.612;2023-07-09T02:31:55;18.80;96.80
26599;DHT22;14240;51.064;16.612;2023-07-09T02:34:21;18.70;96.80
26599;DHT22;14240;51.064;16.612;2023-07-09T02:36:51;18.60;96.80
26599;DHT22;14240;51.064;16.612;2023-07-09T02:39:17;18.40;96.90
26599;DHT22;14240;51.064;16.612;2023-07-09T02:41:43;18.40;97.10
26599;DHT22;14240;51.064;16.612;2023-07-09T02:44:08;18.20;97.20
26599;DHT22;14240;51.064;16.612;2023-07-09T02:46:35;18.20;97.40
26599;DHT22;14240;51.064;16.612;2023-07-09T02:49:02;18.20;97.50
26599;DHT22;14240;51.064;16.612;2023-07-09T02:51:28;18.10;97.70
26599;DHT22;14240;51.064;16.612;2023-07-09T02:53:55;18.20;97.90
26599;DHT22;14240;51.064;16.612;2023-07-09T02:56:21;18.20;98.20
26599;DHT22;14240;51.064;16.612;2023-07-09T02:58:47;18.00;98.20
26599;DHT22;14240;51.064;16.612;2023-07-09T03:01:12;18.00;98.20
26599;DHT22;14240;51.064;16.612;2023-07-09T03:03:38;18.00;98.30
26599;DHT22;14240;51.064;16.612;2023-07-09T03:06:05;18.00;98.50
26599;DHT22;14240;51.064;16.612;2023-07-09T03:08:31;17.90;98.60
26599;DHT22;14240;51.064;16.612;2023-07-09T03:10:57;17.90;98.70
26599;DHT22;14240;51.064;16.612;2023-07-09T03:13:23;17.80;98.70
26599;DHT22;14240;51.064;16.612;2023-07-09T03:15:58;17.90;98.80
26599;DHT22;14240;51.064;16.612;2023-07-09T03:18:24;17.80;99.00
26599;DHT22;14240;51.064;16.612;2023-07-09T03:20:50;17.90;99.10
26599;DHT22;14240;51.064;16.612;2023-07-09T03:23:16;17.90;99.20
26599;DHT22;14240;51.064;16.612;2023-07-09T03:25:42;17.90;99.30
26599;DHT22;14240;51.064;16.612;2023-07-09T03:28:08;18.00;99.40
26599;DHT22;14240;51.064;16.612;2023-07-09T03:30:33;18.00;99.40
26599;DHT22;14240;51.064;16.612;2023-07-09T03:32:59;18.00;99.40
26599;DHT22;14240;51.064;16.612;2023-07-09T03:35:26;18.10;99.30
26599;DHT22;14240;51.064;16.612;2023-07-09T03:37:51;18.10;99.30
26599;DHT22;14240;51.064;16.612;2023-07-09T03:40:21;18.10;99.40
26599;DHT22;14240;51.064;16.612;2023-07-09T03:42:47;18.10;99.40
26599;DHT22;14240;51.064;16.612;2023-07-09T03:45:13;18.10;99.50
26599;DHT22;14240;51.064;16.612;2023-07-09T03:47:39;18.10;99.50
26599;DHT22;14240;51.064;16.612;2023-07-09T03:50:08;18.20;99.50
26599;DHT22;14240;51.064;16.612;2023-07-09T03:52:34;18.20;99.50
26599;DHT22;14240;51.064;16.612;2023-07-09T03:54:59;18.30;99.80
26599;DHT22;14240;51.064;16.612;2023-07-09T03:57:26;18.30;99.90
26599;DHT22;14240;51.064;16.612;2023-07-09T03:59:52;18.30;99.90
26599;DHT22;14240;51.064;16.612;2023-07-09T04:02:18;18.40;99.90
26599;DHT22;14240;51.064;16.612;2023-07-09T04:04:43;18.40;99.90
26599;DHT22;14240;51.064;16.612;2023-07-09T04:07:09;18.40;99.90
26599;DHT22;14240;51.064;16.612;2023-07-09T04:09:35;18.40;99.90
26599;DHT22;14240;51.064;16.612;2023-07-09T04:12:01;18.40;99.90
26599;DHT22;14240;51.064;16.612;2023-07-09T04:14:27;18.40;99.90
26599;DHT22;14240;51.064;16.612;2023-07-09T04:16:53;18.50;99.90
26599;DHT22;14240;51.064;16.612;2023-07-09T04:19:19;18.50;99.90
26599;DHT22;14240;51.064;16.612;2023-07-09T04:21:44;18.50;99.90
26599;DHT22;14240;51.064;16.612;2023-07-09T04:24:10;18.50;99.90
26599;DHT22;14240;51.064;16.612;2023-07-09T04:26:35;18.60;99.90
26599;DHT22;14240;51.064;16.612;2023-07-09T04:29:04;18.60;99.90
26599;DHT22;14240;51.064;16.612;2023-07-09T04:31:31;18.70;99.90
26599;DHT22;14240;51.064;16.612;2023-07-09T04:33:57;18.80;99.90
26599;DHT22;14240;51.064;16.612;2023-07-09T04:36:23;18.80;99.90
26599;DHT22;14240;51.064;16.612;2023-07-09T04:38:48;18.90;99.90
26599;DHT22;14240;51.064;16.612;2023-07-09T04:41:14;18.90;99.90
26599;DHT22;14240;51.064;16.612;2023-07-09T04:43:40;18.90;99.90
26599;DHT22;14240;51.064;16.612;2023-07-09T04:46:05;19.00;99.90
26599;DHT22;14240;51.064;16.612;2023-07-09T04:48:31;19.10;99.90
26599;DHT22;14240;51.064;16.612;2023-07-09T04:50:56;19.10;99.90
26599;DHT22;14240;51.064;16.612;2023-07-09T04:53:22;19.20;99.90
26599;DHT22;14240;51.064;16.612;2023-07-09T04:55:49;19.20;99.90
26599;DHT22;14240;51.064;16.612;2023-07-09T04:58:16;19.30;99.90
26599;DHT22;14240;51.064;16.612;2023-07-09T05:00:42;19.30;99.90
26599;DHT22;14240;51.064;16.612;2023-07-09T05:03:08;19.40;99.90
26599;DHT22;14240;51.064;16.612;2023-07-09T05:05:33;19.50;99.90
26599;DHT22;14240;51.064;16.612;2023-07-09T05:07:59;19.60;99.90
26599;DHT22;14240;51.064;16.612;2023-07-09T05:10:25;19.60;99.90
26599;DHT22;14240;51.064;16.612;2023-07-09T05:12:54;19.80;99.90
26599;DHT22;14240;51.064;16.612;2023-07-09T05:15:21;19.90;99.90
26599;DHT22;14240;51.064;16.612;2023-07-09T05:17:47;19.90;99.90
26599;DHT22;14240;51.064;16.612;2023-07-09T05:20:14;20.00;99.90
26599;DHT22;14240;51.064;16.612;2023-07-09T05:22:40;20.10;99.90
26599;DHT22;14240;51.064;16.612;2023-07-09T05:25:07;20.20;99.90
26599;DHT22;14240;51.064;16.612;2023-07-09T05:27:32;20.30;99.90
26599;DHT22;14240;51.064;16.612;2023-07-09T05:29:58;20.40;99.90
26599;DHT22;14240;51.064;16.612;2023-07-09T05:32:24;20.50;99.90
26599;DHT22;14240;51.064;16.612;2023-07-09T05:34:50;20.60;99.90
26599;DHT22;14240;51.064;16.612;2023-07-09T05:37:15;20.70;99.90
26599;DHT22;14240;51.064;16.612;2023-07-09T05:39:41;20.80;99.90
26599;DHT22;14240;51.064;16.612;2023-07-09T05:42:07;20.80;99.90
26599;DHT22;14240;51.064;16.612;2023-07-09T05:44:32;20.90;99.90
26599;DHT22;14240;51.064;16.612;2023-07-09T05:46:58;21.00;99.90
26599;DHT22;14240;51.064;16.612;2023-07-09T05:49:23;21.10;99.90
26599;DHT22;14240;51.064;16.612;2023-07-09T05:51:49;21.20;99.90
26599;DHT22;14240;51.064;16.612;2023-07-09T05:54:15;21.30;99.70
26599;DHT22;14240;51.064;16.612;2023-07-09T05:56:40;21.40;99.50
26599;DHT22;14240;51.064;16.612;2023-07-09T05:59:06;21.50;99.30
26599;DHT22;14240;51.064;16.612;2023-07-09T06:01:32;21.50;99.20
26599;DHT22;14240;51.064;16.612;2023-07-09T06:03:58;21.70;99.10
26599;DHT22;14240;51.064;16.612;2023-07-09T06:06:24;21.80;99.20
26599;DHT22;14240;51.064;16.612;2023-07-09T06:08:49;21.90;99.30
26599;DHT22;14240;51.064;16.612;2023-07-09T06:11:15;22.00;98.70
26599;DHT22;14240;51.064;16.612;2023-07-09T06:13:43;22.20;98.20
26599;DHT22;14240;51.064;16.612;2023-07-09T06:16:08;22.30;98.20
26599;DHT22;14240;51.064;16.612;2023-07-09T06:18:34;22.40;98.30
26599;DHT22;14240;51.064;16.612;2023-07-09T06:21:02;22.60;97.70
26599;DHT22;14240;51.064;16.612;2023-07-09T06:23:28;22.60;97.60
26599;DHT22;14240;51.064;16.612;2023-07-09T06:25:54;22.80;97.30
26599;DHT22;14240;51.064;16.612;2023-07-09T06:28:22;23.00;97.20
26599;DHT22;14240;51.064;16.612;2023-07-09T06:30:48;23.10;97.10
26599;DHT22;14240;51.064;16.612;2023-07-09T06:33:15;23.30;96.60
26599;DHT22;14240;51.064;16.612;2023-07-09T06:35:53;23.50;96.30
26599;DHT22;14240;51.064;16.612;2023-07-09T06:38:19;23.60;96.10
26599;DHT22;14240;51.064;16.612;2023-07-09T06:40:45;23.70;96.50
26599;DHT22;14240;51.064;16.612;2023-07-09T06:43:11;23.80;96.30
26599;DHT22;14240;51.064;16.612;2023-07-09T06:45:36;23.90;96.00
26599;DHT22;14240;51.064;16.612;2023-07-09T06:48:02;24.10;95.70
26599;DHT22;14240;51.064;16.612;2023-07-09T06:50:28;24.20;95.60
26599;DHT22;14240;51.064;16.612;2023-07-09T06:52:54;24.30;95.10
26599;DHT22;14240;51.064;16.612;2023-07-09T06:55:19;24.40;95.00
26599;DHT22;14240;51.064;16.612;2023-07-09T06:57:45;24.50;94.70
26599;DHT22;14240;51.064;16.612;2023-07-09T07:00:11;24.60;94.50
26599;DHT22;14240;51.064;16.612;2023-07-09T07:02:37;24.80;94.00
26599;DHT22;14240;51.064;16.612;2023-07-09T07:05:03;24.90;93.90
26599;DHT22;14240;51.064;16.612;2023-07-09T07:07:29;25.10;93.80
26599;DHT22;14240;51.064;16.612;2023-07-09T07:09:54;25.20;93.40
26599;DHT22;14240;51.064;16.612;2023-07-09T07:12:25;25.30;93.10
26599;DHT22;14240;51.064;16.612;2023-07-09T07:14:51;25.50;93.10
26599;DHT22;14240;51.064;16.612;2023-07-09T07:17:17;25.60;92.80
26599;DHT22;14240;51.064;16.612;2023-07-09T07:19:43;25.70;92.60
26599;DHT22;14240;51.064;16.612;2023-07-09T07:22:09;25.90;92.10
26599;DHT22;14240;51.064;16.612;2023-07-09T07:24:34;26.00;92.00
26599;DHT22;14240;51.064;16.612;2023-07-09T07:27:00;26.10;91.50
26599;DHT22;14240;51.064;16.612;2023-07-09T07:29:25;26.20;91.20
26599;DHT22;14240;51.064;16.612;2023-07-09T07:31:51;26.30;90.70
26599;DHT22;14240;51.064;16.612;2023-07-09T07:34:17;26.50;90.50
26599;DHT22;14240;51.064;16.612;2023-07-09T07:36:43;26.60;90.50
26599;DHT22;14240;51.064;16.612;2023-07-09T07:39:09;26.80;90.10
26599;DHT22;14240;51.064;16.612;2023-07-09T07:41:34;26.90;90.30
26599;DHT22;14240;51.064;16.612;2023-07-09T07:44:00;27.20;89.30
26599;DHT22;14240;51.064;16.612;2023-07-09T07:46:27;27.10;87.70
26599;DHT22;14240;51.064;16.612;2023-07-09T07:48:54;27.30;88.50
26599;DHT22;14240;51.064;16.612;2023-07-09T07:51:19;27.30;87.80
26599;DHT22;14240;51.064;16.612;2023-07-09T07:53:47;27.50;86.60
26599;DHT22;14240;51.064;16.612;2023-07-09T07:56:14;27.60;87.30
26599;DHT22;14240;51.064;16.612;2023-07-09T07:58:40;27.70;87.00
26599;DHT22;14240;51.064;16.612;2023-07-09T08:01:05;27.80;87.20
26599;DHT22;14240;51.064;16.612;2023-07-09T08:03:31;27.90;86.40
26599;DHT22;14240;51.064;16.612;2023-07-09T08:05:57;28.00;85.80
26599;DHT22;14240;51.064;16.612;2023-07-09T08:08:22;28.20;85.20
26599;DHT22;14240;51.064;16.612;2023-07-09T08:10:50;28.30;85.70
26599;DHT22;14240;51.064;16.612;2023-07-09T08:13:16;28.40;85.70
26599;DHT22;14240;51.064;16.612;2023-07-09T08:15:42;28.50;84.10
26599;DHT22;14240;51.064;16.612;2023-07-09T08:18:08;28.60;83.10
26599;DHT22;14240;51.064;16.612;2023-07-09T08:20:33;28.70;82.70
26599;DHT22;14240;51.064;16.612;2023-07-09T08:22:59;28.80;81.20
26599;DHT22;14240;51.064;16.612;2023-07-09T08:25:25;28.90;79.40
26599;DHT22;14240;51.064;16.612;2023-07-09T08:27:50;29.00;78.40
26599;DHT22;14240;51.064;16.612;2023-07-09T08:30:16;29.10;77.90
26599;DHT22;14240;51.064;16.612;2023-07-09T08:32:41;29.20;77.90
26599;DHT22;14240;51.064;16.612;2023-07-09T08:35:07;29.20;77.20
26599;DHT22;14240;51.064;16.612;2023-07-09T08:37:35;29.40;76.10
26599;DHT22;14240;51.064;16.612;2023-07-09T08:40:01;29.40;76.00
26599;DHT22;14240;51.064;16.612;2023-07-09T08:42:46;29.50;74.30
26599;DHT22;14240;51.064;16.612;2023-07-09T08:45:40;29.60;75.00
26599;DHT22;14240;51.064;16.612;2023-07-09T08:48:29;29.60;73.10
26599;DHT22;14240;51.064;16.612;2023-07-09T08:50:59;29.70;73.40
26599;DHT22;14240;51.064;16.612;2023-07-09T08:53:56;29.80;72.30
26599;DHT22;14240;51.064;16.612;2023-07-09T08:56:22;29.80;73.70
26599;DHT22;14240;51.064;16.612;2023-07-09T08:58:48;29.90;72.40
26599;DHT22;14240;51.064;16.612;2023-07-09T09:01:56;30.00;72.80
26599;DHT22;14240;51.064;16.612;2023-07-09T09:04:29;30.10;72.60
26599;DHT22;14240;51.064;16.612;2023-07-09T09:07:45;30.20;73.50
26599;DHT22;14240;51.064;16.612;2023-07-09T09:10:04;30.30;72.00
26599;DHT22;14240;51.064;16.612;2023-07-09T09:12:40;30.30;69.20
26599;DHT22;14240;51.064;16.612;2023-07-09T09:15:14;30.40;71.30
26599;DHT22;14240;51.064;16.612;2023-07-09T09:17:42;30.50;68.30
26599;DHT22;14240;51.064;16.612;2023-07-09T09:20:17;30.60;68.80
26599;DHT22;14240;51.064;16.612;2023-07-09T09:22:46;30.60;67.50
26599;DHT22;14240;51.064;16.612;2023-07-09T09:25:18;30.70;68.30
26599;DHT22;14240;51.064;16.612;2023-07-09T09:27:46;30.70;67.50
26599;DHT22;14240;51.064;16.612;2023-07-09T09:30:18;30.80;68.10
26599;DHT22;14240;51.064;16.612;2023-07-09T09:32:47;30.90;65.90
26599;DHT22;14240;51.064;16.612;2023-07-09T09:35:16;31.00;65.90
26599;DHT22;14240;51.064;16.612;2023-07-09T09:37:49;31.10;66.20
26599;DHT22;14240;51.064;16.612;2023-07-09T09:40:17;31.20;66.60
26599;DHT22;14240;51.064;16.612;2023-07-09T09:42:44;31.30;64.50
26599;DHT22;14240;51.064;16.612;2023-07-09T09:45:15;31.30;63.80
26599;DHT22;14240;51.064;16.612;2023-07-09T09:47:41;31.40;63.60
26599;DHT22;14240;51.064;16.612;2023-07-09T09:50:08;31.40;61.00
26599;DHT22;14240;51.064;16.612;2023-07-09T09:52:35;31.50;62.60
26599;DHT22;14240;51.064;16.612;2023-07-09T09:55:12;31.50;63.00
26599;DHT22;14240;51.064;16.612;2023-07-09T09:57:38;31.50;61.80
26599;DHT22;14240;51.064;16.612;2023-07-09T10:00:05;31.50;60.80
26599;DHT22;14240;51.064;16.612;2023-07-09T10:02:39;31.40;61.80
26599;DHT22;14240;51.064;16.612;2023-07-09T10:05:12;31.50;63.50
26599;DHT22;14240;51.064;16.612;2023-07-09T10:07:44;31.60;61.70
26599;DHT22;14240;51.064;16.612;2023-07-09T10:10:19;31.60;60.20
26599;DHT22;14240;51.064;16.612;2023-07-09T10:13:01;31.60;60.30
26599;DHT22;14240;51.064;16.612;2023-07-09T10:15:38;31.70;60.40
26599;DHT22;14240;51.064;16.612;2023-07-09T10:26:49;32.00;59.60
26599;DHT22;14240;51.064;16.612;2023-07-09T10:32:18;32.00;58.70
26599;DHT22;14240;51.064;16.612;2023-07-09T10:39:57;32.20;59.40
26599;DHT22;14240;51.064;16.612;2023-07-09T10:42:24;32.20;57.70
26599;DHT22;14240;51.064;16.612;2023-07-09T10:44:56;32.20;58.20
26599;DHT22;14240;51.064;16.612;2023-07-09T10:47:30;32.20;58.10
26599;DHT22;14240;51.064;16.612;2023-07-09T10:49:58;32.30;57.40
26599;DHT22;14240;51.064;16.612;2023-07-09T10:52:30;32.30;56.40
26599;DHT22;14240;51.064;16.612;2023-07-09T10:55:16;32.40;57.80
26599;DHT22;14240;51.064;16.612;2023-07-09T10:57:59;32.40;58.10
26599;DHT22;14240;51.064;16.612;2023-07-09T11:00:37;32.40;57.70
26599;DHT22;14240;51.064;16.612;2023-07-09T11:03:19;32.40;57.60
26599;DHT22;14240;51.064;16.612;2023-07-09T11:05:46;32.50;56.70
26599;DHT22;14240;51.064;16.612;2023-07-09T11:08:16;32.50;55.90
26599;DHT22;14240;51.064;16.612;2023-07-09T11:10:56;32.50;56.40
26599;DHT22;14240;51.064;16.612;2023-07-09T11:13:34;32.60;55.80
26599;DHT22;14240;51.064;16.612;2023-07-09T11:16:02;32.60;55.70
26599;DHT22;14240;51.064;16.612;2023-07-09T11:18:32;32.60;55.00
26599;DHT22;14240;51.064;16.612;2023-07-09T11:21:15;32.70;54.60
26599;DHT22;14240;51.064;16.612;2023-07-09T11:23:49;32.70;53.10
26599;DHT22;14240;51.064;16.612;2023-07-09T11:26:28;32.70;55.00
26599;DHT22;14240;51.064;16.612;2023-07-09T11:31:43;32.80;54.50
26599;DHT22;14240;51.064;16.612;2023-07-09T11:42:28;32.80;54.60
26599;DHT22;14240;51.064;16.612;2023-07-09T11:45:05;32.80;55.10
26599;DHT22;14240;51.064;16.612;2023-07-09T11:47:40;32.80;56.40
26599;DHT22;14240;51.064;16.612;2023-07-09T11:50:24;32.90;55.00
26599;DHT22;14240;51.064;16.612;2023-07-09T11:55:41;32.90;55.00
26599;DHT22;14240;51.064;16.612;2023-07-09T11:58:13;32.90;55.70
26599;DHT22;14240;51.064;16.612;2023-07-09T12:03:33;32.90;54.60
26599;DHT22;14240;51.064;16.612;2023-07-09T12:06:01;33.00;53.10
26599;DHT22;14240;51.064;16.612;2023-07-09T12:08:34;33.00;52.60
26599;DHT22;14240;51.064;16.612;2023-07-09T12:11:00;33.00;53.90
26599;DHT22;14240;51.064;16.612;2023-07-09T12:13:26;33.00;53.80
26599;DHT22;14240;51.064;16.612;2023-07-09T12:15:51;33.00;54.50
26599;DHT22;14240;51.064;16.612;2023-07-09T12:18:17;33.00;53.50
26599;DHT22;14240;51.064;16.612;2023-07-09T12:20:51;33.00;53.40
26599;DHT22;14240;51.064;16.612;2023-07-09T12:23:32;33.00;52.50
26599;DHT22;14240;51.064;16.612;2023-07-09T12:26:02;33.00;53.10
26599;DHT22;14240;51.064;16.612;2023-07-09T12:28:29;32.90;53.50
26599;DHT22;14240;51.064;16.612;2023-07-09T12:30:55;32.90;53.80
26599;DHT22;14240;51.064;16.612;2023-07-09T12:33:23;32.90;52.50
26599;DHT22;14240;51.064;16.612;2023-07-09T12:36:00;32.90;52.40
26599;DHT22;14240;51.064;16.612;2023-07-09T12:38:28;32.90;52.20
26599;DHT22;14240;51.064;16.612;2023-07-09T12:40:55;32.80;51.80
26599;DHT22;14240;51.064;16.612;2023-07-09T12:43:28;32.90;52.70
26599;DHT22;14240;51.064;16.612;2023-07-09T12:45:56;32.80;52.40
26599;DHT22;14240;51.064;16.612;2023-07-09T12:48:25;32.90;52.20
26599;DHT22;14240;51.064;16.612;2023-07-09T12:50:51;32.90;52.40
26599;DHT22;14240;51.064;16.612;2023-07-09T12:53:18;33.00;52.30
26599;DHT22;14240;51.064;16.612;2023-07-09T12:55:47;32.90;53.00
26599;DHT22;14240;51.064;16.612;2023-07-09T12:58:20;33.00;52.30
26599;DHT22;14240;51.064;16.612;2023-07-09T13:00:51;33.00;51.70
26599;DHT22;14240;51.064;16.612;2023-07-09T13:03:19;32.90;51.30
26599;DHT22;14240;51.064;16.612;2023-07-09T13:06:29;32.90;52.00
26599;DHT22;14240;51.064;16.612;2023-07-09T13:08:57;32.90;51.40
26599;DHT22;14240;51.064;16.612;2023-07-09T13:11:24;33.00;50.90
26599;DHT22;14240;51.064;16.612;2023-07-09T13:14:03;33.00;51.30
26599;DHT22;14240;51.064;16.612;2023-07-09T13:16:29;33.00;51.80
26599;DHT22;14240;51.064;16.612;2023-07-09T13:18:55;32.90;51.80
26599;DHT22;14240;51.064;16.612;2023-07-09T13:21:22;32.90;51.50
26599;DHT22;14240;51.064;16.612;2023-07-09T13:23:48;32.90;51.50
26599;DHT22;14240;51.064;16.612;2023-07-09T13:26:15;32.80;52.10
26599;DHT22;14240;51.064;16.612;2023-07-09T13:28:42;32.80;51.80
26599;DHT22;14240;51.064;16.612;2023-07-09T13:31:13;32.70;51.20
26599;DHT22;14240;51.064;16.612;2023-07-09T13:33:40;32.70;51.80
26599;DHT22;14240;51.064;16.612;2023-07-09T13:36:06;32.80;51.60
26599;DHT22;14240;51.064;16.612;2023-07-09T13:38:32;32.70;51.50
26599;DHT22;14240;51.064;16.612;2023-07-09T13:41:01;32.70;52.30
26599;DHT22;14240;51.064;16.612;2023-07-09T13:43:35;32.70;51.80
26599;DHT22;14240;51.064;16.612;2023-07-09T13:46:03;32.70;52.00
26599;DHT22;14240;51.064;16.612;2023-07-09T13:48:31;32.70;51.90
26599;DHT22;14240;51.064;16.612;2023-07-09T13:50:58;32.70;51.30
26599;DHT22;14240;51.064;16.612;2023-07-09T13:53:29;32.70;51.90
26599;DHT22;14240;51.064;16.612;2023-07-09T13:55:55;32.70;52.50
26599;DHT22;14240;51.064;16.612;2023-07-09T13:58:24;32.70;52.90
26599;DHT22;14240;51.064;16.612;2023-07-09T14:00:55;32.70;52.50
26599;DHT22;14240;51.064;16.612;2023-07-09T14:03:32;32.70;52.20
26599;DHT22;14240;51.064;16.612;2023-07-09T14:05:58;32.70;52.00
26599;DHT22;14240;51.064;16.612;2023-07-09T14:08:23;32.60;52.80
26599;DHT22;14240;51.064;16.612;2023-07-09T14:10:49;32.70;52.40
26599;DHT22;14240;51.064;16.612;2023-07-09T14:13:21;32.70;53.70
26599;DHT22;14240;51.064;16.612;2023-07-09T14:15:47;32.80;53.70
26599;DHT22;14240;51.064;16.612;2023-07-09T14:18:15;32.70;53.00
26599;DHT22;14240;51.064;16.612;2023-07-09T14:20:42;32.70;53.00
26599;DHT22;14240;51.064;16.612;2023-07-09T14:23:18;32.70;52.50
26599;DHT22;14240;51.064;16.612;2023-07-09T14:25:44;32.60;51.80
26599;DHT22;14240;51.064;16.612;2023-07-09T14:28:13;32.60;52.00
26599;DHT22;14240;51.064;16.612;2023-07-09T14:30:39;32.50;52.00
26599;DHT22;14240;51.064;16.612;2023-07-09T14:33:13;32.50;51.90
26599;DHT22;14240;51.064;16.612;2023-07-09T14:35:39;32.60;52.20
26599;DHT22;14240;51.064;16.612;2023-07-09T14:40:38;32.40;52.00
26599;DHT22;14240;51.064;16.612;2023-07-09T14:43:05;32.30;52.90
26599;DHT22;14240;51.064;16.612;2023-07-09T14:45:34;32.30;53.00
26599;DHT22;14240;51.064;16.612;2023-07-09T14:48:00;32.20;51.60
26599;DHT22;14240;51.064;16.612;2023-07-09T14:50:26;32.20;51.20
26599;DHT22;14240;51.064;16.612;2023-07-09T14:52:52;32.20;51.60
26599;DHT22;14240;51.064;16.612;2023-07-09T14:55:22;32.20;51.90
26599;DHT22;14240;51.064;16.612;2023-07-09T14:57:50;32.20;52.20
26599;DHT22;14240;51.064;16.612;2023-07-09T15:00:20;32.10;51.40
26599;DHT22;14240;51.064;16.612;2023-07-09T15:02:49;32.10;51.80
26599;DHT22;14240;51.064;16.612;2023-07-09T15:05:23;32.10;50.70
26599;DHT22;14240;51.064;16.612;2023-07-09T15:07:50;32.00;50.60
26599;DHT22;14240;51.064;16.612;2023-07-09T15:10:26;32.00;50.70
26599;DHT22;14240;51.064;16.612;2023-07-09T15:12:55;32.00;50.50
26599;DHT22;14240;51.064;16.612;2023-07-09T15:15:28;31.90;51.30
26599;DHT22;14240;51.064;16.612;2023-07-09T15:17:56;32.00;52.00
26599;DHT22;14240;51.064;16.612;2023-07-09T15:20:23;32.00;51.40
26599;DHT22;14240;51.064;16.612;2023-07-09T15:22:50;31.90;51.60
26599;DHT22;14240;51.064;16.612;2023-07-09T15:25:19;31.80;51.00
26599;DHT22;14240;51.064;16.612;2023-07-09T15:27:45;31.80;51.40
26599;DHT22;14240;51.064;16.612;2023-07-09T15:30:18;31.70;51.40
26599;DHT22;14240;51.064;16.612;2023-07-09T15:32:45;31.80;51.80
26599;DHT22;14240;51.064;16.612;2023-07-09T15:35:13;31.70;51.60
26599;DHT22;14240;51.064;16.612;2023-07-09T15:37:38;31.80;51.70
26599;DHT22;14240;51.064;16.612;2023-07-09T15:40:23;31.70;52.00
26599;DHT22;14240;51.064;16.612;2023-07-09T15:42:55;31.60;51.70
26599;DHT22;14240;51.064;16.612;2023-07-09T15:45:21;31.60;51.30
26599;DHT22;14240;51.064;16.612;2023-07-09T15:47:47;31.60;51.30
26599;DHT22;14240;51.064;16.612;2023-07-09T15:50:26;31.60;51.10
26599;DHT22;14240;51.064;16.612;2023-07-09T15:52:53;31.50;51.00
26599;DHT22;14240;51.064;16.612;2023-07-09T15:55:24;31.50;51.70
26599;DHT22;14240;51.064;16.612;2023-07-09T15:57:53;31.50;51.50
26599;DHT22;14240;51.064;16.612;2023-07-09T16:00:24;31.40;51.40
26599;DHT22;14240;51.064;16.612;2023-07-09T16:02:51;31.50;51.40